ADDS METAR Data INFO
IDs: Format: Raw Decoded Include TAF

Data at: 1014 UTC 14 Dec 2017

KGUP 140953Z AUTO 00000KT 10SM CLR M08/M19 A3003 RMK AO2 SLP152 T10781189
KGUP 140853Z AUTO 00000KT 10SM CLR M07/M18 A3003 RMK AO2 SLP153 T10671178 56009
KGUP 140753Z AUTO 09003KT 10SM CLR M05/M18 A3003 RMK AO2 SLP153 T10501178
KGUP 140653Z AUTO 00000KT 10SM CLR M06/M18 A3005 RMK AO2 SLP173 T10561183 401561144
KGUP 140553Z AUTO 04003KT 10SM CLR M07/M19 A3007 RMK AO2 SLP209 T10721189 10094 21078 53002
KGUP 140453Z AUTO 06004KT 10SM CLR M06/M18 A3006 RMK AO2 SLP216 T10561183
KGUP 140353Z AUTO 00000KT 10SM CLR M03/M17 A3005 RMK AO2 SLP228 T10331172
KGUP 140253Z AUTO 00000KT 10SM CLR M03/M18 A3006 RMK AO2 SLP258 T10281183 58003
KGUP 140153Z AUTO 21005KT 10SM CLR 03/M16 A3006 RMK AO2 SLP232 T00331161
KGUP 140053Z AUTO 23004KT 10SM CLR 06/M16 A3007 RMK AO2 SLP225 T00561161
KGUP 132353Z AUTO 26004KT 10SM CLR 10/M16 A3007 RMK AO2 SLP205 T01001156 10156 20039 56011
KGUP 132253Z AUTO 25005KT 10SM CLR 14/M16 A3007 RMK AO2 SLP186 T01391156
KGUP 132153Z AUTO 00000KT 10SM CLR 14/M14 A3009 RMK AO2 SLP186 T01391144
KGUP 132053Z AUTO 17003KT 10SM CLR 13/M14 A3011 RMK AO2 SLP204 T01331144 56034
KGUP 131953Z AUTO 24003KT 10SM CLR 12/M16 A3014 RMK AO2 SLP211 T01171156
KGUP 131853Z AUTO VRB03KT 10SM CLR 09/M16 A3018 RMK AO2 SLP240 T00891161
KGUP 131753Z AUTO 00000KT 10SM CLR 04/M17 A3023 RMK AO2 SLP266 T00391172 10044 21144 58007
KGUP 131653Z AUTO 00000KT 10SM CLR M01/M18 A3025 RMK AO2 SLP295 T10061178
KGUP 131553Z AUTO 00000KT 10SM CLR M06/M19 A3025 RMK AO2 SLP311 T10561194
KGUP 131453Z AUTO 00000KT 10SM CLR M12/M22 A3025 RMK AO2 SLP321 T11171217 50001
KGUP 131353Z AUTO 00000KT 10SM CLR M13/M22 A3026 RMK AO2 SLP322 T11281217
KGUP 131253Z AUTO 00000KT 10SM CLR M13/M22 A3025 RMK AO2 SLP305 T11281217
KGUP 131153Z AUTO 00000KT 10SM CLR M12/M22 A3025 RMK AO2 SLP274 T11221217 11078 21139 58012
KGUP 131053Z AUTO 00000KT 10SM CLR M12/M22 A3026 RMK AO2 SLP258 T11221222
KGUP 130953Z AUTO 00000KT 10SM CLR M11/M21 A3028 RMK AO2 SLP250 T11061211
KGUP 130853Z AUTO 08004KT 10SM CLR M13/M23 A3029 RMK AO2 SLP269 T11281228 56005
KGUP 130753Z AUTO 00000KT 10SM CLR M10/M22 A3029 RMK AO2 SLP264 T11001217
KGUP 130653Z AUTO 00000KT 10SM CLR M11/M22 A3031 RMK AO2 SLP283 T11061217 401501156
KGUP 130553Z AUTO 00000KT 10SM CLR M08/M21 A3031 RMK AO2 SLP295 T10781206 10089 21094 56007
KGUP 130453Z AUTO 00000KT 10SM CLR M07/M21 A3031 RMK AO2 SLP317 T10721206
KGUP 130353Z AUTO 00000KT 10SM CLR M06/M20 A3033 RMK AO2 SLP343 T10611200
KGUP 130253Z AUTO 00000KT 10SM CLR M02/M19 A3034 RMK AO2 SLP356 T10171189 50003
KGUP 130153Z AUTO 00000KT 10SM CLR M01/M18 A3034 RMK AO2 SLP362 T10111183
KGUP 130053Z AUTO 00000KT 10SM CLR 03/M18 A3033 RMK AO2 SLP342 T00281178
KGUP 122353Z AUTO 00000KT 10SM CLR 09/M17 A3032 RMK AO2 SLP305 T00891172 10150 20044 56011
KGUP 122253Z AUTO 02007KT 10SM CLR 13/M17 A3033 RMK AO2 SLP293 T01281167